Time;durP1;ratioP1;P1;durP2;ratioP2;P2;SDS_P1;SDS_P2;PMS_P1;PMS_P2;Temp;Humidity;BMP_temperature;BMP_pressure;BME280_temperature;BME280_humidity;BME280_pressure;Samples;Min_cycle;Max_cycle;Signal;HPM_P1;HPM_P2
2022/01/22 00:01:58;;;;;;;;;;;;;;;;;;5070884;28;19925;-70
2022/01/22 00:04:25;;;;;;;;;;;;;;;;;;5072067;28;19925;-68
2022/01/22 00:06:54;;;;;;;;;;;;;;;;;;5072791;28;19932;-70
2022/01/22 00:09:25;;;;;;;;;;;;;;;;;;5071229;28;20557;-70
2022/01/22 00:11:53;;;;;;;;;;;;;;;;;;5072516;28;19931;-70
2022/01/22 00:14:26;;;;;;;;;;;;;;;;;;5073757;28;19954;-69
2022/01/22 00:16:53;;;;;;;;;;;;;;;;;;5072157;28;20389;-69
2022/01/22 00:19:20;;;;;;;;;;;;;;;;;;5073371;28;19928;-69
2022/01/22 00:21:47;;;;;;;;;;;;;;;;;;5068875;28;19961;-69
2022/01/22 00:24:14;;;;;;;;;;;;;;;;;;5070850;28;19931;-69
2022/01/22 00:26:41;;;;;;;;;;;;;;;;;;5073848;28;20267;-69
2022/01/22 00:29:08;;;;;;;;;;;;;;;;;;5071912;28;19928;-69
2022/01/22 00:31:34;;;;;;;;;;;;;;;;;;5072204;28;20293;-70
2022/01/22 00:34:01;;;;;;;;;;;;;;;;;;5071397;28;19932;-68
2022/01/22 00:36:28;;;;;;;;;;;;;;;;;;5071190;28;19924;-68
2022/01/22 00:38:55;;;;;;;;;;;;;;;;;;5072340;28;19925;-70
2022/01/22 00:41:22;;;;;;;;;;;;;;;;;;5074095;28;19931;-69
2022/01/22 00:43:49;;;;;;;;;;;;;;;;;;5068579;28;19934;-69
2022/01/22 00:46:16;;;;;;;;;;;;;;;;;;5072950;28;19924;-69
2022/01/22 00:48:43;;;;;;;;;;;;;;;;;;5074304;28;19936;-69
2022/01/22 00:51:10;;;;;;;;;;;;;;;;;;5074907;28;20443;-69
2022/01/22 00:53:37;;;;;;;;;;;;;;;;;;5070279;28;19931;-68
2022/01/22 00:56:04;;;;;;;;;;;;;;;;;;5076848;28;19924;-68
2022/01/22 00:58:30;;;;;;;;;;;;;;;;;;5079267;28;19924;-68
2022/01/22 01:00:57;;;;;;;;;;;;;;;;;;5074475;28;19924;-69
2022/01/22 01:03:25;;;;;;;;;;;;;;;;;;5072256;28;19924;-69
2022/01/22 01:05:52;;;;;;;;;;;;;;;;;;5074225;28;19946;-69
2022/01/22 01:08:18;;;;;;;;;;;;;;;;;;5070975;28;19925;-69
2022/01/22 01:10:45;;;;;;;;;;;;;;;;;;5071841;28;19925;-69
2022/01/22 01:13:14;;;;;;;;;;;;;;;;;;5072528;28;19924;-69
2022/01/22 01:15:53;;;;;;;;;;;;;;;;;;5068801;28;19928;-70
2022/01/22 01:32:18;;;;;;;;;;;;;;;;;;5061538;28;19919;-69
2022/01/22 01:34:46;;;;;;;;;;;;;;;;;;5074848;28;20511;-69
2022/01/22 01:37:15;;;;;;;;;;;;;;;;;;5072548;28;19932;-68
2022/01/22 01:39:43;;;;;;;;;;;;;;;;;;5070896;28;19970;-68
2022/01/22 01:42:13;;;;;;;;;;;;;;;;;;5073272;28;19955;-69
2022/01/22 01:44:41;;;;;;;;;;;;;;;;;;5071265;28;19932;-69
2022/01/22 01:47:09;;;;;;;;;;;;;;;;;;5069607;28;19964;-68
2022/01/22 01:49:36;;;;;;;;;;;;;;;;;;5072270;28;19977;-68
2022/01/22 01:52:05;;;;;;;;;;;;;;;;;;5071534;28;19929;-69
2022/01/22 01:54:38;;;;;;;;;;;;;;;;;;5070287;28;20274;-69
2022/01/22 01:59:50;;;;;;;;;;;;;;;;;;5071973;28;20697;-69
2022/01/22 02:02:17;;;;;;;;;;;;;;;;;;5069657;28;19935;-69
2022/01/22 02:04:44;;;;;;;;;;;;;;;;;;5073023;28;19931;-70
2022/01/22 02:07:11;;;;;;;;;;;;;;;;;;5076340;28;19931;-69
2022/01/22 02:09:37;;;;;;;;;;;;;;;;;;5069265;28;19931;-69
2022/01/22 02:12:10;;;;;;;;;;;;;;;;;;5069335;28;19933;-69
2022/01/22 02:25:35;;;;;;;;;;;;;;;;;;5072821;28;19918;-68
2022/01/22 02:28:03;;;;;;;;;;;;;;;;;;5075200;28;19924;-69
2022/01/22 02:30:33;;;;;;;;;;;;;;;;;;5069944;28;20011;-68
2022/01/22 02:33:11;;;;;;;;;;;;;;;;;;5078531;28;19933;-69
2022/01/22 02:35:45;;;;;;;;;;;;;;;;;;5078358;28;20420;-68
2022/01/22 02:38:17;;;;;;;;;;;;;;;;;;5073018;28;19932;-69
2022/01/22 02:40:47;;;;;;;;;;;;;;;;;;5069994;28;19925;-69
2022/01/22 02:43:14;;;;;;;;;;;;;;;;;;5070783;28;20374;-69
2022/01/22 02:45:41;;;;;;;;;;;;;;;;;;5069710;28;20371;-70
2022/01/22 02:48:08;;;;;;;;;;;;;;;;;;5075222;28;20027;-69
2022/01/22 02:50:35;;;;;;;;;;;;;;;;;;5070652;28;19924;-69
2022/01/22 02:53:02;;;;;;;;;;;;;;;;;;5068705;28;19935;-69
2022/01/22 02:55:29;;;;;;;;;;;;;;;;;;5068638;28;20009;-69
2022/01/22 02:57:56;;;;;;;;;;;;;;;;;;5072769;28;20301;-69
2022/01/22 03:00:23;;;;;;;;;;;;;;;;;;5070968;28;19925;-69
2022/01/22 03:02:51;;;;;;;;;;;;;;;;;;5069008;28;19978;-70
2022/01/22 03:05:18;;;;;;;;;;;;;;;;;;5068926;28;20290;-70
2022/01/22 03:07:50;;;;;;;;;;;;;;;;;;5070424;28;19931;-68
2022/01/22 03:10:20;;;;;;;;;;;;;;;;;;5070784;28;19955;-68
2022/01/22 03:13:07;;;;;;;;;;;;;;;;;;5069104;28;20324;-69
2022/01/22 03:15:56;;;;;;;;;;;;;;;;;;5071566;28;19925;-69
2022/01/22 03:18:37;;;;;;;;;;;;;;;;;;5068101;28;20294;-68
2022/01/22 03:21:11;;;;;;;;;;;;;;;;;;5074110;28;19924;-68
2022/01/22 03:29:11;;;;;;;;;;;;;;;;;;5078914;28;20032;-69
2022/01/22 03:31:40;;;;;;;;;;;;;;;;;;5078007;28;19924;-68
2022/01/22 03:34:07;;;;;;;;;;;;;;;;;;5077433;28;19932;-69
2022/01/22 03:36:34;;;;;;;;;;;;;;;;;;5076801;28;19940;-69
2022/01/22 03:39:01;;;;;;;;;;;;;;;;;;5075653;28;20441;-68
2022/01/22 03:41:28;;;;;;;;;;;;;;;;;;5072538;28;19928;-69
2022/01/22 03:43:56;;;;;;;;;;;;;;;;;;5076029;28;19925;-68
2022/01/22 03:46:23;;;;;;;;;;;;;;;;;;5074781;28;19931;-69
2022/01/22 03:48:50;;;;;;;;;;;;;;;;;;5072476;28;19933;-69
2022/01/22 03:51:16;;;;;;;;;;;;;;;;;;5079585;28;19943;-69
2022/01/22 03:53:43;;;;;;;;;;;;;;;;;;5068694;28;20266;-69
2022/01/22 03:56:11;;;;;;;;;;;;;;;;;;5078314;28;19935;-69
2022/01/22 03:58:38;;;;;;;;;;;;;;;;;;5074530;28;19928;-69
2022/01/22 04:01:34;;;;;;;;;;;;;;;;;;5071180;28;19924;-69
2022/01/22 04:04:05;;;;;;;;;;;;;;;;;;5073059;28;19928;-69
2022/01/22 04:09:18;;;;;;;;;;;;;;;;;;5075928;28;19919;-68
2022/01/22 04:11:46;;;;;;;;;;;;;;;;;;5071989;28;20338;-69
2022/01/22 04:14:18;;;;;;;;;;;;;;;;;;5074155;28;19924;-68
2022/01/22 04:16:58;;;;;;;;;;;;;;;;;;5072651;28;20023;-68
2022/01/22 04:24:59;;;;;;;;;;;;;;;;;;5077170;28;20095;-69
2022/01/22 04:27:27;;;;;;;;;;;;;;;;;;5070999;28;19928;-68
2022/01/22 04:29:54;;;;;;;;;;;;;;;;;;5082070;28;19924;-69
2022/01/22 04:32:21;;;;;;;;;;;;;;;;;;5080549;28;19970;-69
2022/01/22 04:34:48;;;;;;;;;;;;;;;;;;5073015;28;19947;-69
2022/01/22 04:37:17;;;;;;;;;;;;;;;;;;5074549;28;21526;-69
2022/01/22 04:39:44;;;;;;;;;;;;;;;;;;5075547;28;20329;-69
2022/01/22 04:42:11;;;;;;;;;;;;;;;;;;5073100;28;22262;-69
2022/01/22 04:44:46;;;;;;;;;;;;;;;;;;5075368;28;19924;-69
2022/01/22 04:47:28;;;;;;;;;;;;;;;;;;5070348;28;20049;-69
2022/01/22 04:52:43;;;;;;;;;;;;;;;;;;5069843;28;19919;-68
2022/01/22 04:55:09;;;;;;;;;;;;;;;;;;5071579;28;20332;-68
2022/01/22 04:57:36;;;;;;;;;;;;;;;;;;5070944;28;20009;-69
2022/01/22 05:00:02;;;;;;;;;;;;;;;;;;5070116;28;20294;-69
2022/01/22 05:02:29;;;;;;;;;;;;;;;;;;5074807;28;19924;-70
2022/01/22 05:04:56;;;;;;;;;;;;;;;;;;5074641;28;19939;-69
2022/01/22 05:07:23;;;;;;;;;;;;;;;;;;5068618;28;19924;-69
2022/01/22 05:09:50;;;;;;;;;;;;;;;;;;5076471;28;19928;-69
2022/01/22 05:12:17;;;;;;;;;;;;;;;;;;5068842;28;19928;-70
2022/01/22 05:14:44;;;;;;;;;;;;;;;;;;5070781;28;20294;-70
2022/01/22 05:17:12;;;;;;;;;;;;;;;;;;5067600;28;19936;-69
2022/01/22 05:19:47;;;;;;;;;;;;;;;;;;5076159;28;19936;-69
2022/01/22 05:22:26;;;;;;;;;;;;;;;;;;5068441;28;19989;-69
2022/01/22 05:24:58;;;;;;;;;;;;;;;;;;5071400;28;19924;-70
2022/01/22 05:27:44;;;;;;;;;;;;;;;;;;5070969;28;19979;-69
2022/01/22 05:30:34;;;;;;;;;;;;;;;;;;5070441;28;19928;-69
2022/01/22 05:33:16;;;;;;;;;;;;;;;;;;5071361;28;20013;-70
2022/01/22 05:38:28;;;;;;;;;;;;;;;;;;5070315;28;19924;-70
2022/01/22 05:40:55;;;;;;;;;;;;;;;;;;5074925;28;19935;-70
2022/01/22 05:43:22;;;;;;;;;;;;;;;;;;5068365;28;19924;-68
2022/01/22 05:45:49;;;;;;;;;;;;;;;;;;5067831;28;19935;-68
2022/01/22 05:48:16;;;;;;;;;;;;;;;;;;5069530;28;20409;-69
2022/01/22 05:50:49;;;;;;;;;;;;;;;;;;5070262;28;19924;-68
2022/01/22 05:53:30;;;;;;;;;;;;;;;;;;5072261;28;19970;-70
2022/01/22 06:01:37;;;;;;;;;;;;;;;;;;5066073;28;20400;-69
2022/01/22 06:04:04;;;;;;;;;;;;;;;;;;5068951;28;20586;-70
2022/01/22 06:06:31;;;;;;;;;;;;;;;;;;5077623;28;20302;-69
2022/01/22 06:09:01;;;;;;;;;;;;;;;;;;5068369;28;20305;-69
2022/01/22 06:11:29;;;;;;;;;;;;;;;;;;5073073;28;20292;-69
2022/01/22 06:13:56;;;;;;;;;;;;;;;;;;5066581;28;20015;-69
2022/01/22 06:16:23;;;;;;;;;;;;;;;;;;5067722;28;20305;-69
2022/01/22 06:18:50;;;;;;;;;;;;;;;;;;5074315;28;19932;-69
2022/01/22 06:21:17;;;;;;;;;;;;;;;;;;5066882;28;19925;-69
2022/01/22 06:23:45;;;;;;;;;;;;;;;;;;5067769;28;20294;-69
2022/01/22 06:26:12;;;;;;;;;;;;;;;;;;5069901;28;20330;-69
2022/01/22 06:28:39;;;;;;;;;;;;;;;;;;5067565;28;19924;-69
2022/01/22 06:31:07;;;;;;;;;;;;;;;;;;5069028;28;19947;-70
2022/01/22 06:33:34;;;;;;;;;;;;;;;;;;5068166;28;19932;-69
2022/01/22 06:36:01;;;;;;;;;;;;;;;;;;5071824;28;21549;-68
2022/01/22 06:38:28;;;;;;;;;;;;;;;;;;5073762;28;20309;-68
2022/01/22 06:43:40;;;;;;;;;;;;;;;;;;5071403;28;19979;-69
2022/01/22 06:46:07;;;;;;;;;;;;;;;;;;5069919;28;19924;-69
2022/01/22 06:48:36;;;;;;;;;;;;;;;;;;5070256;28;19925;-69
2022/01/22 06:51:03;;;;;;;;;;;;;;;;;;5069683;28;19960;-68
2022/01/22 06:53:29;;;;;;;;;;;;;;;;;;5070592;28;19931;-69
2022/01/22 06:55:59;;;;;;;;;;;;;;;;;;5066639;28;19939;-69
2022/01/22 06:58:26;;;;;;;;;;;;;;;;;;5070687;28;19928;-69
2022/01/22 07:00:53;;;;;;;;;;;;;;;;;;5078193;28;20297;-68
2022/01/22 07:03:20;;;;;;;;;;;;;;;;;;5077115;28;19931;-68
2022/01/22 07:05:47;;;;;;;;;;;;;;;;;;5076378;28;19931;-69
2022/01/22 07:08:14;;;;;;;;;;;;;;;;;;5073204;28;19924;-68
2022/01/22 07:10:41;;;;;;;;;;;;;;;;;;5075312;28;20365;-68
2022/01/22 07:13:08;;;;;;;;;;;;;;;;;;5072927;28;19924;-68
2022/01/22 07:15:35;;;;;;;;;;;;;;;;;;5073875;28;19925;-68
2022/01/22 07:18:03;;;;;;;;;;;;;;;;;;5071049;28;19929;-68
2022/01/22 07:20:33;;;;;;;;;;;;;;;;;;5071599;28;19924;-69
2022/01/22 07:25:32;;;;;;;;;;;;;;;;;;5054431;28;20024;-66
2022/01/22 07:27:59;;;;;;;;;;;;;;;;;;5049889;28;19935;-66
2022/01/22 07:30:27;;;;;;;;;;;;;;;;;;5050397;28;20346;-65
2022/01/22 07:32:54;;;;;;;;;;;;;;;;;;5048686;28;19925;-66
2022/01/22 07:35:21;;;;;;;;;;;;;;;;;;5047971;28;19932;-65
2022/01/22 07:37:48;;;;;;;;;;;;;;;;;;5051656;28;19924;-66
2022/01/22 07:40:15;;;;;;;;;;;;;;;;;;5050619;28;19929;-66
2022/01/22 07:42:42;;;;;;;;;;;;;;;;;;5053019;28;19932;-66
2022/01/22 07:45:09;;;;;;;;;;;;;;;;;;5049104;28;20402;-65
2022/01/22 07:47:35;;;;;;;;;;;;;;;;;;5047329;28;19925;-65
2022/01/22 07:50:02;;;;;;;;;;;;;;;;;;5048182;28;20314;-66
2022/01/22 07:52:29;;;;;;;;;;;;;;;;;;5051696;28;19932;-64
2022/01/22 07:54:56;;;;;;;;;;;;;;;;;;5048319;28;19929;-65
2022/01/22 07:57:23;;;;;;;;;;;;;;;;;;5047754;28;19944;-65
2022/01/22 07:59:50;;;;;;;;;;;;;;;;;;5046377;28;19929;-65
2022/01/22 08:02:17;;;;;;;;;;;;;;;;;;5054240;28;19928;-65
2022/01/22 08:04:44;;;;;;;;;;;;;;;;;;5043493;28;20287;-64
2022/01/22 08:07:11;;;;;;;;;;;;;;;;;;5050393;28;20371;-64
2022/01/22 08:09:38;;;;;;;;;;;;;;;;;;5044881;28;19929;-64
2022/01/22 08:12:05;;;;;;;;;;;;;;;;;;5049400;28;19924;-66
2022/01/22 08:14:31;;;;;;;;;;;;;;;;;;5048174;28;19925;-65
2022/01/22 08:16:58;;;;;;;;;;;;;;;;;;5048428;28;19925;-65
2022/01/22 08:19:25;;;;;;;;;;;;;;;;;;5044696;28;20379;-64
2022/01/22 08:21:52;;;;;;;;;;;;;;;;;;5047509;28;19936;-65
2022/01/22 08:24:23;;;;;;;;;;;;;;;;;;5051833;28;20302;-64
2022/01/22 08:27:05;;;;;;;;;;;;;;;;;;5048761;28;19925;-65
2022/01/22 08:29:32;;;;;;;;;;;;;;;;;;5049184;28;20398;-66
2022/01/22 08:32:08;;;;;;;;;;;;;;;;;;5047622;28;19931;-65
2022/01/22 08:37:20;;;;;;;;;;;;;;;;;;5047136;28;19969;-65
2022/01/22 08:39:47;;;;;;;;;;;;;;;;;;5048958;28;19929;-65
2022/01/22 08:42:14;;;;;;;;;;;;;;;;;;5042109;28;20059;-66
2022/01/22 08:44:41;;;;;;;;;;;;;;;;;;5044687;28;19932;-65
2022/01/22 08:47:08;;;;;;;;;;;;;;;;;;5046730;28;19929;-63
2022/01/22 08:49:35;;;;;;;;;;;;;;;;;;5045062;28;19943;-67
2022/01/22 08:52:01;;;;;;;;;;;;;;;;;;5046752;28;19960;-65
2022/01/22 08:54:28;;;;;;;;;;;;;;;;;;5043038;28;19924;-65
2022/01/22 08:56:55;;;;;;;;;;;;;;;;;;5044110;28;19925;-65
2022/01/22 08:59:22;;;;;;;;;;;;;;;;;;5044605;28;19936;-65
2022/01/22 09:01:49;;;;;;;;;;;;;;;;;;5049423;28;19924;-65
2022/01/22 09:04:17;;;;;;;;;;;;;;;;;;5052524;28;19929;-65
2022/01/22 09:06:43;;;;;;;;;;;;;;;;;;5045418;28;19979;-65
2022/01/22 09:09:12;;;;;;;;;;;;;;;;;;5050363;28;20298;-65
2022/01/22 09:11:39;;;;;;;;;;;;;;;;;;5044264;28;20436;-65
2022/01/22 09:14:06;;;;;;;;;;;;;;;;;;5046570;28;19925;-65
2022/01/22 09:16:33;;;;;;;;;;;;;;;;;;5045622;28;20299;-65
2022/01/22 09:19:05;;;;;;;;;;;;;;;;;;5046852;28;19925;-65
2022/01/22 09:21:32;;;;;;;;;;;;;;;;;;5050418;28;20189;-65
2022/01/22 09:23:59;;;;;;;;;;;;;;;;;;5046609;28;20306;-64
2022/01/22 09:26:26;;;;;;;;;;;;;;;;;;5046505;28;19940;-64
2022/01/22 09:28:55;;;;;;;;;;;;;;;;;;5048667;28;19925;-65
2022/01/22 09:31:22;;;;;;;;;;;;;;;;;;5047263;28;19955;-64
2022/01/22 09:33:49;;;;;;;;;;;;;;;;;;5043281;28;19925;-65
2022/01/22 09:36:16;;;;;;;;;;;;;;;;;;5047121;28;19924;-65
2022/01/22 09:38:43;;;;;;;;;;;;;;;;;;5046581;28;20298;-66
2022/01/22 09:41:10;;;;;;;;;;;;;;;;;;5050916;28;19931;-63
2022/01/22 09:43:37;;;;;;;;;;;;;;;;;;5044383;28;19929;-65
2022/01/22 09:46:04;;;;;;;;;;;;;;;;;;5040081;28;20314;-64
2022/01/22 09:48:30;;;;;;;;;;;;;;;;;;5041857;28;19932;-65
2022/01/22 09:50:57;;;;;;;;;;;;;;;;;;5043538;28;19925;-64
2022/01/22 09:53:24;;;;;;;;;;;;;;;;;;5046044;28;19935;-64
2022/01/22 09:55:51;;;;;;;;;;;;;;;;;;5047465;28;19940;-64
2022/01/22 09:58:18;;;;;;;;;;;;;;;;;;5045232;28;19925;-65
2022/01/22 10:00:45;;;;;;;;;;;;;;;;;;5047508;28;19960;-65
2022/01/22 10:03:12;;;;;;;;;;;;;;;;;;5050407;28;20370;-65
2022/01/22 10:05:39;;;;;;;;;;;;;;;;;;5049080;28;19925;-67
2022/01/22 10:08:06;;;;;;;;;;;;;;;;;;5044291;28;19925;-64
2022/01/22 10:10:33;;;;;;;;;;;;;;;;;;5047721;28;19979;-66
2022/01/22 10:13:00;;;;;;;;;;;;;;;;;;5049735;28;19933;-66
2022/01/22 10:15:27;;;;;;;;;;;;;;;;;;5047137;28;19935;-65
2022/01/22 10:17:54;;;;;;;;;;;;;;;;;;5044213;28;20290;-65
2022/01/22 10:20:20;;;;;;;;;;;;;;;;;;5050306;28;20412;-65
2022/01/22 10:22:47;;;;;;;;;;;;;;;;;;5051215;28;19961;-65
2022/01/22 10:25:17;;;;;;;;;;;;;;;;;;5046362;28;19925;-65
2022/01/22 10:27:48;;;;;;;;;;;;;;;;;;5046610;28;19947;-65
2022/01/22 10:30:17;;;;;;;;;;;;;;;;;;5047035;28;20294;-65
2022/01/22 10:32:48;;;;;;;;;;;;;;;;;;5039939;28;20017;-64
2022/01/22 10:35:15;;;;;;;;;;;;;;;;;;5042505;28;20462;-64
2022/01/22 10:37:42;;;;;;;;;;;;;;;;;;5040694;28;19925;-65
2022/01/22 10:40:09;;;;;;;;;;;;;;;;;;5038412;28;19933;-65
2022/01/22 10:42:36;;;;;;;;;;;;;;;;;;5041456;28;20305;-65
2022/01/22 10:45:06;;;;;;;;;;;;;;;;;;5040348;28;19932;-64
2022/01/22 10:47:33;;;;;;;;;;;;;;;;;;5041436;28;20000;-64
2022/01/22 10:50:00;;;;;;;;;;;;;;;;;;5042850;28;21468;-65
2022/01/22 10:52:27;;;;;;;;;;;;;;;;;;5043575;28;19940;-65
2022/01/22 10:54:53;;;;;;;;;;;;;;;;;;5045180;28;19925;-65
2022/01/22 10:57:20;;;;;;;;;;;;;;;;;;5040128;28;19929;-64
2022/01/22 10:59:47;;;;;;;;;;;;;;;;;;5040083;28;19934;-65
2022/01/22 11:02:14;;;;;;;;;;;;;;;;;;5041461;28;19925;-66
2022/01/22 11:04:41;;;;;;;;;;;;;;;;;;5043411;28;19951;-65
2022/01/22 11:07:08;;;;;;;;;;;;;;;;;;5041548;28;19925;-65
2022/01/22 11:09:35;;;;;;;;;;;;;;;;;;5042877;28;19925;-65
2022/01/22 11:12:02;;;;;;;;;;;;;;;;;;5041987;28;20450;-65
2022/01/22 11:14:29;;;;;;;;;;;;;;;;;;5040942;28;19946;-66
2022/01/22 11:16:56;;;;;;;;;;;;;;;;;;5042162;28;19939;-68
2022/01/22 11:19:23;;;;;;;;;;;;;;;;;;5040550;28;19940;-66
2022/01/22 11:21:50;;;;;;;;;;;;;;;;;;5042397;28;19925;-67
2022/01/22 11:24:17;;;;;;;;;;;;;;;;;;5041815;28;19951;-67
2022/01/22 11:26:44;;;;;;;;;;;;;;;;;;5038409;28;19936;-69
2022/01/22 11:29:11;;;;;;;;;;;;;;;;;;5045445;28;20121;-66
2022/01/22 11:31:38;;;;;;;;;;;;;;;;;;5050737;28;19925;-67
2022/01/22 11:34:05;;;;;;;;;;;;;;;;;;5048222;28;19951;-67
2022/01/22 11:36:32;;;;;;;;;;;;;;;;;;5045271;28;19925;-69
2022/01/22 11:38:59;;;;;;;;;;;;;;;;;;5046304;28;19924;-68
2022/01/22 11:41:26;;;;;;;;;;;;;;;;;;5045043;28;19925;-67
2022/01/22 11:43:59;;;;;;;;;;;;;;;;;;5042695;28;19936;-67
2022/01/22 11:46:29;;;;;;;;;;;;;;;;;;5052037;28;19958;-66
2022/01/22 11:48:56;;;;;;;;;;;;;;;;;;5049526;28;20386;-67
2022/01/22 11:51:23;;;;;;;;;;;;;;;;;;5050494;28;19933;-66
2022/01/22 11:53:50;;;;;;;;;;;;;;;;;;5047802;28;19933;-67
2022/01/22 11:56:24;;;;;;;;;;;;;;;;;;5054259;28;20306;-66
2022/01/22 11:58:51;;;;;;;;;;;;;;;;;;5058576;28;19947;-67
2022/01/22 12:01:18;;;;;;;;;;;;;;;;;;5046360;28;20310;-66
2022/01/22 12:03:45;;;;;;;;;;;;;;;;;;5049652;28;19932;-67
2022/01/22 12:06:12;;;;;;;;;;;;;;;;;;5053907;28;19964;-66
2022/01/22 12:08:39;;;;;;;;;;;;;;;;;;5058408;28;20019;-68
2022/01/22 12:16:31;;;;;;;;;;;;;;;;;;5053874;28;19920;-67
2022/01/22 12:19:00;;;;;;;;;;;;;;;;;;5056500;28;19925;-68
2022/01/22 12:21:33;;;;;;;;;;;;;;;;;;5054192;28;19936;-68
2022/01/22 12:24:00;;;;;;;;;;;;;;;;;;5047899;28;19925;-68
2022/01/22 12:26:27;;;;;;;;;;;;;;;;;;5056253;28;19956;-68
2022/01/22 12:28:54;;;;;;;;;;;;;;;;;;5053040;28;19956;-66
2022/01/22 12:31:23;;;;;;;;;;;;;;;;;;5057532;28;19925;-66
2022/01/22 12:33:52;;;;;;;;;;;;;;;;;;5061026;28;19999;-66
2022/01/22 12:36:23;;;;;;;;;;;;;;;;;;5061585;28;19972;-67
2022/01/22 12:38:51;;;;;;;;;;;;;;;;;;5067141;28;19924;-66
2022/01/22 12:41:30;;;;;;;;;;;;;;;;;;5061113;28;19924;-67
2022/01/22 12:43:57;;;;;;;;;;;;;;;;;;5057073;28;20353;-67
2022/01/22 12:46:24;;;;;;;;;;;;;;;;;;5050308;28;20298;-67
2022/01/22 12:48:50;;;;;;;;;;;;;;;;;;5053831;28;20313;-67
2022/01/22 12:51:18;;;;;;;;;;;;;;;;;;5053027;28;19931;-67
2022/01/22 12:53:45;;;;;;;;;;;;;;;;;;5057408;28;19978;-67
2022/01/22 12:56:47;;;;;;;;;;;;;;;;;;5047048;28;20015;-67
2022/01/22 12:59:11;;;;;;;;;;;;;;;;;;5049669;28;19924;-68
2022/01/22 13:01:38;;;;;;;;;;;;;;;;;;5053877;28;20408;-68
2022/01/22 13:04:08;;;;;;;;;;;;;;;;;;5054323;28;20555;-68
2022/01/22 13:06:35;;;;;;;;;;;;;;;;;;5050197;28;19990;-67
2022/01/22 13:09:02;;;;;;;;;;;;;;;;;;5051268;28;19925;-66
2022/01/22 13:11:30;;;;;;;;;;;;;;;;;;5050941;28;19925;-67
2022/01/22 13:13:58;;;;;;;;;;;;;;;;;;5056298;28;20168;-68
2022/01/22 13:16:25;;;;;;;;;;;;;;;;;;5057405;28;19955;-67
2022/01/22 13:18:56;;;;;;;;;;;;;;;;;;5046573;28;20382;-68
2022/01/22 13:21:23;;;;;;;;;;;;;;;;;;5056997;28;19925;-67
2022/01/22 13:23:50;;;;;;;;;;;;;;;;;;5069118;22;21172;-68
2022/01/22 13:26:17;;;;;;;;;;;;;;;;;;5046198;28;19928;-66
2022/01/22 13:28:44;;;;;;;;;;;;;;;;;;5053915;28;20302;-66
2022/01/22 13:31:11;;;;;;;;;;;;;;;;;;5049327;28;19973;-65
2022/01/22 13:33:44;;;;;;;;;;;;;;;;;;5055953;28;19931;-67
2022/01/22 13:36:19;;;;;;;;;;;;;;;;;;5049652;28;19979;-66
2022/01/22 13:39:05;;;;;;;;;;;;;;;;;;5050767;28;19932;-65
2022/01/22 13:49:44;;;;;;;;;;;;;;;;;;5047621;28;19920;-67
2022/01/22 13:52:11;;;;;;;;;;;;;;;;;;5050020;28;19925;-67
2022/01/22 13:54:38;;;;;;;;;;;;;;;;;;5046217;28;19925;-67
2022/01/22 13:57:05;;;;;;;;;;;;;;;;;;5047618;28;20298;-67
2022/01/22 13:59:32;;;;;;;;;;;;;;;;;;5040632;28;19925;-67
2022/01/22 14:02:07;;;;;;;;;;;;;;;;;;5046134;28;19925;-66
2022/01/22 14:04:34;;;;;;;;;;;;;;;;;;5050676;28;19948;-66
2022/01/22 14:07:01;;;;;;;;;;;;;;;;;;5048769;28;19925;-66
2022/01/22 14:09:28;;;;;;;;;;;;;;;;;;5043979;28;19932;-67
2022/01/22 14:11:54;;;;;;;;;;;;;;;;;;5045126;28;20301;-66
2022/01/22 14:14:21;;;;;;;;;;;;;;;;;;5049140;28;19924;-67
2022/01/22 14:16:55;;;;;;;;;;;;;;;;;;5039641;28;19925;-67
2022/01/22 14:19:22;;;;;;;;;;;;;;;;;;5043835;28;19974;-66
2022/01/22 14:21:49;;;;;;;;;;;;;;;;;;5047884;28;19925;-67
2022/01/22 14:24:16;;;;;;;;;;;;;;;;;;5049429;28;20302;-67
2022/01/22 14:26:42;;;;;;;;;;;;;;;;;;5043058;28;19925;-67
2022/01/22 14:29:09;;;;;;;;;;;;;;;;;;5036182;28;19925;-67
2022/01/22 14:31:36;;;;;;;;;;;;;;;;;;5045275;28;19924;-67
2022/01/22 14:34:03;;;;;;;;;;;;;;;;;;5048821;28;19929;-67
2022/01/22 14:36:30;;;;;;;;;;;;;;;;;;5041959;28;19932;-65
2022/01/22 14:38:59;;;;;;;;;;;;;;;;;;5042778;28;19937;-66
2022/01/22 14:44:28;;;;;;;;;;;;;;;;;;5042747;28;20290;-66
2022/01/22 14:46:56;;;;;;;;;;;;;;;;;;5043267;28;19933;-67
2022/01/22 14:49:23;;;;;;;;;;;;;;;;;;5047052;28;19929;-67
2022/01/22 14:51:50;;;;;;;;;;;;;;;;;;5048883;28;19928;-67
2022/01/22 14:54:18;;;;;;;;;;;;;;;;;;5047539;28;19925;-67
2022/01/22 14:56:45;;;;;;;;;;;;;;;;;;5047139;28;19955;-67
2022/01/22 14:59:12;;;;;;;;;;;;;;;;;;5049561;28;20003;-67
2022/01/22 15:01:39;;;;;;;;;;;;;;;;;;5047674;28;19924;-67
2022/01/22 15:04:06;;;;;;;;;;;;;;;;;;5044175;28;19929;-67
2022/01/22 15:06:33;;;;;;;;;;;;;;;;;;5046039;28;20715;-67
2022/01/22 15:08:59;;;;;;;;;;;;;;;;;;5041425;28;19931;-67
2022/01/22 15:11:26;;;;;;;;;;;;;;;;;;5048465;28;19932;-67
2022/01/22 15:13:53;;;;;;;;;;;;;;;;;;5040577;28;20435;-67
2022/01/22 15:16:21;;;;;;;;;;;;;;;;;;5045439;28;19925;-67
2022/01/22 15:18:53;;;;;;;;;;;;;;;;;;5049912;28;19929;-67
2022/01/22 15:21:20;;;;;;;;;;;;;;;;;;5049550;28;19935;-67
2022/01/22 15:23:47;;;;;;;;;;;;;;;;;;5051532;28;19929;-67
2022/01/22 15:26:15;;;;;;;;;;;;;;;;;;5051076;28;19929;-67
2022/01/22 15:28:46;;;;;;;;;;;;;;;;;;5051603;28;20408;-67
2022/01/22 15:31:27;;;;;;;;;;;;;;;;;;5045653;28;19936;-67
2022/01/22 15:34:06;;;;;;;;;;;;;;;;;;5047755;28;19935;-67
2022/01/22 15:36:33;;;;;;;;;;;;;;;;;;5042157;28;19925;-67
2022/01/22 15:39:00;;;;;;;;;;;;;;;;;;5052346;28;20337;-67
2022/01/22 15:41:27;;;;;;;;;;;;;;;;;;5051694;28;19976;-67
2022/01/22 15:43:54;;;;;;;;;;;;;;;;;;5053208;28;19924;-67
2022/01/22 15:46:21;;;;;;;;;;;;;;;;;;5044646;28;19924;-68
2022/01/22 15:48:48;;;;;;;;;;;;;;;;;;5045864;28;19925;-66
2022/01/22 15:51:15;;;;;;;;;;;;;;;;;;5046303;28;19925;-66
2022/01/22 15:53:42;;;;;;;;;;;;;;;;;;5049470;28;19925;-65
2022/01/22 15:56:09;;;;;;;;;;;;;;;;;;5049773;28;20122;-66
2022/01/22 15:58:36;;;;;;;;;;;;;;;;;;5046646;28;19999;-67
2022/01/22 16:01:03;;;;;;;;;;;;;;;;;;5051317;28;19925;-67
2022/01/22 16:03:31;;;;;;;;;;;;;;;;;;5050777;28;19979;-67
2022/01/22 16:06:07;;;;;;;;;;;;;;;;;;5050736;28;19925;-68
2022/01/22 16:08:34;;;;;;;;;;;;;;;;;;5043868;28;19960;-66
2022/01/22 16:11:01;;;;;;;;;;;;;;;;;;5051549;28;19945;-67
2022/01/22 16:13:28;;;;;;;;;;;;;;;;;;5036327;28;19929;-66
2022/01/22 16:15:55;;;;;;;;;;;;;;;;;;5043368;28;19925;-67
2022/01/22 16:18:22;;;;;;;;;;;;;;;;;;5044059;28;20464;-68
2022/01/22 16:20:48;;;;;;;;;;;;;;;;;;5045217;28;19925;-67
2022/01/22 16:23:15;;;;;;;;;;;;;;;;;;5043793;28;19935;-68
2022/01/22 16:25:42;;;;;;;;;;;;;;;;;;5040335;28;20302;-68
2022/01/22 16:28:09;;;;;;;;;;;;;;;;;;5046471;28;19925;-66
2022/01/22 16:30:36;;;;;;;;;;;;;;;;;;5044176;28;19925;-67
2022/01/22 16:33:03;;;;;;;;;;;;;;;;;;5042865;28;19932;-69
2022/01/22 16:35:30;;;;;;;;;;;;;;;;;;5041649;28;19924;-69
2022/01/22 16:37:57;;;;;;;;;;;;;;;;;;5040873;28;19925;-69
2022/01/22 16:40:25;;;;;;;;;;;;;;;;;;5045960;28;19928;-69
2022/01/22 16:43:01;;;;;;;;;;;;;;;;;;5042144;28;19972;-69
2022/01/22 16:56:38;;;;;;;;;;;;;;;;;;5004723;28;19964;-67
2022/01/22 16:59:07;;;;;;;;;;;;;;;;;;5041481;28;19939;-68
2022/01/22 17:01:37;;;;;;;;;;;;;;;;;;5043830;28;20018;-67
2022/01/22 17:04:04;;;;;;;;;;;;;;;;;;5039935;28;19956;-68
2022/01/22 17:06:32;;;;;;;;;;;;;;;;;;5042426;28;19928;-68
2022/01/22 17:09:11;;;;;;;;;;;;;;;;;;5044923;28;20016;-67
2022/01/22 17:14:10;;;;;;;;;;;;;;;;;;5045202;28;19928;-67
2022/01/22 17:14:27;;;;;;;;;;;;;;;;;;5042276;28;19940;-68
2022/01/22 17:16:55;;;;;;;;;;;;;;;;;;5040755;28;19929;-69
2022/01/22 17:19:23;;;;;;;;;;;;;;;;;;5043145;28;19932;-68
2022/01/22 17:21:50;;;;;;;;;;;;;;;;;;5043683;28;19925;-68
2022/01/22 17:24:17;;;;;;;;;;;;;;;;;;5039469;28;19931;-68
2022/01/22 17:26:44;;;;;;;;;;;;;;;;;;5043344;28;19936;-69
2022/01/22 17:29:10;;;;;;;;;;;;;;;;;;5041338;28;20019;-69
2022/01/22 17:31:37;;;;;;;;;;;;;;;;;;5039817;28;20398;-68
2022/01/22 17:34:04;;;;;;;;;;;;;;;;;;5039888;28;19936;-68
2022/01/22 17:36:31;;;;;;;;;;;;;;;;;;5042374;28;19925;-67
2022/01/22 17:38:59;;;;;;;;;;;;;;;;;;5045143;28;19925;-68
2022/01/22 17:41:26;;;;;;;;;;;;;;;;;;5042794;28;19932;-67
2022/01/22 17:43:54;;;;;;;;;;;;;;;;;;5038703;28;19982;-67
2022/01/22 17:46:21;;;;;;;;;;;;;;;;;;5042726;28;19925;-66
2022/01/22 17:48:48;;;;;;;;;;;;;;;;;;5043571;28;19929;-68
2022/01/22 17:51:15;;;;;;;;;;;;;;;;;;5045127;28;19925;-68
2022/01/22 17:53:42;;;;;;;;;;;;;;;;;;5041611;28;20302;-67
2022/01/22 17:56:09;;;;;;;;;;;;;;;;;;5041402;28;19993;-69
2022/01/22 17:58:36;;;;;;;;;;;;;;;;;;5038365;28;20093;-68
2022/01/22 18:01:04;;;;;;;;;;;;;;;;;;5040665;28;19933;-68
2022/01/22 18:03:34;;;;;;;;;;;;;;;;;;5044069;28;19925;-68
2022/01/22 18:06:00;;;;;;;;;;;;;;;;;;5042493;28;20365;-68
2022/01/22 18:08:27;;;;;;;;;;;;;;;;;;5038852;28;20312;-68
2022/01/22 18:10:56;;;;;;;;;;;;;;;;;;5042105;28;20441;-68
2022/01/22 18:13:23;;;;;;;;;;;;;;;;;;5040151;28;19940;-68
2022/01/22 18:15:51;;;;;;;;;;;;;;;;;;5037859;28;19978;-68
2022/01/22 18:18:18;;;;;;;;;;;;;;;;;;5040182;28;19925;-67
2022/01/22 18:20:45;;;;;;;;;;;;;;;;;;5040597;28;19932;-67
2022/01/22 18:23:12;;;;;;;;;;;;;;;;;;5039763;28;19929;-68